sensor_id;sensor_type;location;lat;lon;timestamp;P1;durP1;ratioP1;P2;durP2;ratioP2
35418;SDS011;21525;41.240;16.500;2023-02-08T00:01:05;8.30;;;4.55;;
35418;SDS011;21525;41.240;16.500;2023-02-08T00:03:35;10.48;;;5.28;;
35418;SDS011;21525;41.240;16.500;2023-02-08T00:06:01;9.75;;;5.00;;
35418;SDS011;21525;41.240;16.500;2023-02-08T00:08:28;9.23;;;5.18;;
35418;SDS011;21525;41.240;16.500;2023-02-08T00:10:54;9.38;;;5.53;;
35418;SDS011;21525;41.240;16.500;2023-02-08T00:13:19;10.00;;;5.90;;
35418;SDS011;21525;41.240;16.500;2023-02-08T00:15:45;8.43;;;5.13;;
35418;SDS011;21525;41.240;16.500;2023-02-08T00:18:12;8.73;;;5.30;;
35418;SDS011;21525;41.240;16.500;2023-02-08T00:20:38;9.15;;;5.90;;
35418;SDS011;21525;41.240;16.500;2023-02-08T00:23:06;8.48;;;4.97;;
35418;SDS011;21525;41.240;16.500;2023-02-08T00:25:32;8.80;;;4.95;;
35418;SDS011;21525;41.240;16.500;2023-02-08T00:27:58;9.05;;;5.00;;
35418;SDS011;21525;41.240;16.500;2023-02-08T00:30:24;9.30;;;5.25;;
35418;SDS011;21525;41.240;16.500;2023-02-08T00:32:50;9.38;;;4.60;;
35418;SDS011;21525;41.240;16.500;2023-02-08T00:35:16;10.93;;;5.30;;
35418;SDS011;21525;41.240;16.500;2023-02-08T00:37:42;12.00;;;4.95;;
35418;SDS011;21525;41.240;16.500;2023-02-08T00:40:09;7.82;;;4.55;;
35418;SDS011;21525;41.240;16.500;2023-02-08T00:42:35;8.10;;;4.80;;
35418;SDS011;21525;41.240;16.500;2023-02-08T00:45:01;9.75;;;5.00;;
35418;SDS011;21525;41.240;16.500;2023-02-08T00:47:28;9.70;;;4.90;;
35418;SDS011;21525;41.240;16.500;2023-02-08T00:49:53;9.88;;;4.78;;
35418;SDS011;21525;41.240;16.500;2023-02-08T00:52:20;9.50;;;5.00;;
35418;SDS011;21525;41.240;16.500;2023-02-08T00:54:46;6.95;;;4.07;;
35418;SDS011;21525;41.240;16.500;2023-02-08T00:57:13;12.85;;;6.45;;
35418;SDS011;21525;41.240;16.500;2023-02-08T00:59:39;9.20;;;6.18;;
35418;SDS011;21525;41.240;16.500;2023-02-08T01:02:04;7.97;;;3.78;;
35418;SDS011;21525;41.240;16.500;2023-02-08T01:04:30;8.57;;;3.45;;
35418;SDS011;21525;41.240;16.500;2023-02-08T01:06:56;6.38;;;2.45;;
35418;SDS011;21525;41.240;16.500;2023-02-08T01:09:23;5.60;;;2.13;;
35418;SDS011;21525;41.240;16.500;2023-02-08T01:11:49;6.35;;;2.45;;
35418;SDS011;21525;41.240;16.500;2023-02-08T01:14:15;5.53;;;2.22;;
35418;SDS011;21525;41.240;16.500;2023-02-08T01:16:41;9.32;;;3.20;;
35418;SDS011;21525;41.240;16.500;2023-02-08T01:19:06;6.10;;;2.58;;
35418;SDS011;21525;41.240;16.500;2023-02-08T01:21:35;6.68;;;2.60;;
35418;SDS011;21525;41.240;16.500;2023-02-08T01:24:03;6.53;;;3.80;;
35418;SDS011;21525;41.240;16.500;2023-02-08T01:26:30;8.95;;;4.30;;
35418;SDS011;21525;41.240;16.500;2023-02-08T01:28:57;6.07;;;3.17;;
35418;SDS011;21525;41.240;16.500;2023-02-08T01:31:28;8.30;;;5.15;;
35418;SDS011;21525;41.240;16.500;2023-02-08T01:33:58;8.95;;;4.47;;
35418;SDS011;21525;41.240;16.500;2023-02-08T01:36:25;8.90;;;4.47;;
35418;SDS011;21525;41.240;16.500;2023-02-08T01:38:52;7.88;;;4.40;;
35418;SDS011;21525;41.240;16.500;2023-02-08T01:41:28;7.35;;;4.38;;
35418;SDS011;21525;41.240;16.500;2023-02-08T01:46:36;6.80;;;4.37;;
35418;SDS011;21525;41.240;16.500;2023-02-08T01:49:24;11.27;;;4.95;;
35418;SDS011;21525;41.240;16.500;2023-02-08T01:51:58;7.93;;;4.20;;
35418;SDS011;21525;41.240;16.500;2023-02-08T01:54:35;6.75;;;3.67;;
35418;SDS011;21525;41.240;16.500;2023-02-08T01:57:05;7.78;;;3.35;;
35418;SDS011;21525;41.240;16.500;2023-02-08T01:59:33;5.18;;;2.67;;
35418;SDS011;21525;41.240;16.500;2023-02-08T02:02:13;6.43;;;2.25;;
35418;SDS011;21525;41.240;16.500;2023-02-08T02:04:42;7.32;;;2.42;;
35418;SDS011;21525;41.240;16.500;2023-02-08T02:07:08;6.20;;;2.67;;
35418;SDS011;21525;41.240;16.500;2023-02-08T02:12:18;1.85;;;1.45;;
35418;SDS011;21525;41.240;16.500;2023-02-08T02:14:45;9.15;;;3.05;;
35418;SDS011;21525;41.240;16.500;2023-02-08T02:17:12;8.73;;;2.35;;
35418;SDS011;21525;41.240;16.500;2023-02-08T02:19:53;4.60;;;2.00;;
35418;SDS011;21525;41.240;16.500;2023-02-08T02:27:58;6.65;;;1.85;;
35418;SDS011;21525;41.240;16.500;2023-02-08T02:33:45;6.63;;;1.58;;
35418;SDS011;21525;41.240;16.500;2023-02-08T02:41:50;6.82;;;2.28;;
35418;SDS011;21525;41.240;16.500;2023-02-08T02:49:49;7.43;;;2.00;;
35418;SDS011;21525;41.240;16.500;2023-02-08T02:52:22;9.48;;;2.33;;
35418;SDS011;21525;41.240;16.500;2023-02-08T02:54:53;6.63;;;2.25;;
35418;SDS011;21525;41.240;16.500;2023-02-08T02:57:25;9.27;;;2.42;;
35418;SDS011;21525;41.240;16.500;2023-02-08T02:59:57;6.90;;;1.88;;
35418;SDS011;21525;41.240;16.500;2023-02-08T03:02:27;6.00;;;1.83;;
35418;SDS011;21525;41.240;16.500;2023-02-08T03:04:54;6.05;;;2.17;;
35418;SDS011;21525;41.240;16.500;2023-02-08T03:07:25;5.38;;;1.98;;
35418;SDS011;21525;41.240;16.500;2023-02-08T03:10:06;6.32;;;1.95;;
35418;SDS011;21525;41.240;16.500;2023-02-08T03:15:26;3.60;;;1.23;;
35418;SDS011;21525;41.240;16.500;2023-02-08T03:29:24;3.72;;;1.80;;
35418;SDS011;21525;41.240;16.500;2023-02-08T03:32:02;8.02;;;2.20;;
35418;SDS011;21525;41.240;16.500;2023-02-08T03:37:31;6.00;;;2.60;;
35418;SDS011;21525;41.240;16.500;2023-02-08T03:40:05;4.70;;;1.83;;
35418;SDS011;21525;41.240;16.500;2023-02-08T03:42:37;4.63;;;2.00;;
35418;SDS011;21525;41.240;16.500;2023-02-08T03:45:06;6.18;;;2.20;;
35418;SDS011;21525;41.240;16.500;2023-02-08T03:47:38;5.72;;;1.90;;
35418;SDS011;21525;41.240;16.500;2023-02-08T03:50:07;5.45;;;1.88;;
35418;SDS011;21525;41.240;16.500;2023-02-08T03:52:36;6.90;;;2.45;;
35418;SDS011;21525;41.240;16.500;2023-02-08T03:55:04;6.35;;;2.00;;
35418;SDS011;21525;41.240;16.500;2023-02-08T03:57:37;4.45;;;2.05;;
35418;SDS011;21525;41.240;16.500;2023-02-08T04:00:14;6.22;;;2.03;;
35418;SDS011;21525;41.240;16.500;2023-02-08T04:02:47;7.03;;;2.38;;
35418;SDS011;21525;41.240;16.500;2023-02-08T04:07:46;6.72;;;2.85;;
35418;SDS011;21525;41.240;16.500;2023-02-08T04:10:12;5.75;;;1.85;;
35418;SDS011;21525;41.240;16.500;2023-02-08T04:12:38;7.05;;;2.63;;
35418;SDS011;21525;41.240;16.500;2023-02-08T04:15:05;4.05;;;2.13;;
35418;SDS011;21525;41.240;16.500;2023-02-08T04:17:31;5.10;;;1.85;;
35418;SDS011;21525;41.240;16.500;2023-02-08T04:19:57;6.03;;;2.40;;
35418;SDS011;21525;41.240;16.500;2023-02-08T04:22:23;4.05;;;2.00;;
35418;SDS011;21525;41.240;16.500;2023-02-08T04:24:48;4.80;;;1.95;;
35418;SDS011;21525;41.240;16.500;2023-02-08T04:27:14;4.82;;;1.92;;
35418;SDS011;21525;41.240;16.500;2023-02-08T04:29:40;7.88;;;2.03;;
35418;SDS011;21525;41.240;16.500;2023-02-08T04:32:06;6.88;;;2.25;;
35418;SDS011;21525;41.240;16.500;2023-02-08T04:34:36;4.05;;;1.92;;
35418;SDS011;21525;41.240;16.500;2023-02-08T04:37:03;4.03;;;1.70;;
35418;SDS011;21525;41.240;16.500;2023-02-08T04:39:29;9.27;;;2.33;;
35418;SDS011;21525;41.240;16.500;2023-02-08T04:41:55;9.27;;;2.58;;
35418;SDS011;21525;41.240;16.500;2023-02-08T04:44:21;5.57;;;1.98;;
35418;SDS011;21525;41.240;16.500;2023-02-08T04:46:46;6.60;;;1.95;;
35418;SDS011;21525;41.240;16.500;2023-02-08T04:49:12;8.43;;;2.10;;
35418;SDS011;21525;41.240;16.500;2023-02-08T04:51:38;4.35;;;1.95;;
35418;SDS011;21525;41.240;16.500;2023-02-08T04:54:04;6.03;;;1.98;;
35418;SDS011;21525;41.240;16.500;2023-02-08T04:56:30;5.25;;;2.00;;
35418;SDS011;21525;41.240;16.500;2023-02-08T04:58:55;4.32;;;2.15;;
35418;SDS011;21525;41.240;16.500;2023-02-08T05:01:21;5.28;;;1.92;;
35418;SDS011;21525;41.240;16.500;2023-02-08T05:03:47;6.68;;;2.25;;
35418;SDS011;21525;41.240;16.500;2023-02-08T05:06:13;7.72;;;2.03;;
35418;SDS011;21525;41.240;16.500;2023-02-08T05:08:39;13.13;;;1.90;;
35418;SDS011;21525;41.240;16.500;2023-02-08T05:11:05;4.88;;;1.58;;
35418;SDS011;21525;41.240;16.500;2023-02-08T05:13:31;9.73;;;2.03;;
35418;SDS011;21525;41.240;16.500;2023-02-08T05:15:56;3.63;;;2.00;;
35418;SDS011;21525;41.240;16.500;2023-02-08T05:18:22;11.85;;;2.13;;
35418;SDS011;21525;41.240;16.500;2023-02-08T05:20:58;8.75;;;2.38;;
35418;SDS011;21525;41.240;16.500;2023-02-08T05:23:25;18.13;;;2.53;;
35418;SDS011;21525;41.240;16.500;2023-02-08T05:25:52;4.28;;;1.90;;
35418;SDS011;21525;41.240;16.500;2023-02-08T05:28:18;4.63;;;1.90;;
35418;SDS011;21525;41.240;16.500;2023-02-08T05:30:45;4.63;;;2.25;;
35418;SDS011;21525;41.240;16.500;2023-02-08T05:33:11;7.35;;;1.83;;
35418;SDS011;21525;41.240;16.500;2023-02-08T05:35:37;5.68;;;2.10;;
35418;SDS011;21525;41.240;16.500;2023-02-08T05:38:03;5.40;;;2.10;;
35418;SDS011;21525;41.240;16.500;2023-02-08T05:40:29;4.10;;;2.10;;
35418;SDS011;21525;41.240;16.500;2023-02-08T05:42:56;9.27;;;2.67;;
35418;SDS011;21525;41.240;16.500;2023-02-08T05:45:22;4.50;;;2.13;;
35418;SDS011;21525;41.240;16.500;2023-02-08T05:47:48;8.98;;;2.17;;
35418;SDS011;21525;41.240;16.500;2023-02-08T05:50:13;8.38;;;2.20;;
35418;SDS011;21525;41.240;16.500;2023-02-08T05:52:39;4.85;;;2.17;;
35418;SDS011;21525;41.240;16.500;2023-02-08T05:55:06;9.00;;;2.20;;
35418;SDS011;21525;41.240;16.500;2023-02-08T05:57:32;7.35;;;2.33;;
35418;SDS011;21525;41.240;16.500;2023-02-08T05:59:58;3.78;;;1.95;;
35418;SDS011;21525;41.240;16.500;2023-02-08T06:02:24;4.07;;;1.90;;
35418;SDS011;21525;41.240;16.500;2023-02-08T06:04:50;7.53;;;3.03;;
35418;SDS011;21525;41.240;16.500;2023-02-08T06:07:16;6.20;;;2.15;;
35418;SDS011;21525;41.240;16.500;2023-02-08T06:09:41;5.20;;;1.90;;
35418;SDS011;21525;41.240;16.500;2023-02-08T06:12:07;9.35;;;2.40;;
35418;SDS011;21525;41.240;16.500;2023-02-08T06:14:33;7.20;;;2.42;;
35418;SDS011;21525;41.240;16.500;2023-02-08T06:16:59;8.90;;;2.70;;
35418;SDS011;21525;41.240;16.500;2023-02-08T06:19:25;6.85;;;3.05;;
35418;SDS011;21525;41.240;16.500;2023-02-08T06:21:51;8.85;;;2.30;;
35418;SDS011;21525;41.240;16.500;2023-02-08T06:24:16;9.07;;;2.58;;
35418;SDS011;21525;41.240;16.500;2023-02-08T06:26:42;6.63;;;2.42;;
35418;SDS011;21525;41.240;16.500;2023-02-08T06:29:08;6.53;;;2.38;;
35418;SDS011;21525;41.240;16.500;2023-02-08T06:31:34;17.63;;;2.70;;
35418;SDS011;21525;41.240;16.500;2023-02-08T06:34:00;9.40;;;2.88;;
35418;SDS011;21525;41.240;16.500;2023-02-08T06:36:26;7.93;;;2.90;;
35418;SDS011;21525;41.240;16.500;2023-02-08T06:38:52;10.40;;;2.65;;
35418;SDS011;21525;41.240;16.500;2023-02-08T06:41:18;7.65;;;2.70;;
35418;SDS011;21525;41.240;16.500;2023-02-08T06:43:44;6.03;;;2.55;;
35418;SDS011;21525;41.240;16.500;2023-02-08T06:46:10;8.68;;;2.60;;
35418;SDS011;21525;41.240;16.500;2023-02-08T06:48:36;7.65;;;3.08;;
35418;SDS011;21525;41.240;16.500;2023-02-08T06:51:03;6.55;;;3.10;;
35418;SDS011;21525;41.240;16.500;2023-02-08T06:53:29;5.40;;;2.40;;
35418;SDS011;21525;41.240;16.500;2023-02-08T06:55:55;8.95;;;3.00;;
35418;SDS011;21525;41.240;16.500;2023-02-08T06:58:21;13.35;;;3.20;;
35418;SDS011;21525;41.240;16.500;2023-02-08T07:00:47;8.48;;;2.47;;
35418;SDS011;21525;41.240;16.500;2023-02-08T07:03:13;7.75;;;2.20;;
35418;SDS011;21525;41.240;16.500;2023-02-08T07:05:41;7.85;;;2.33;;
35418;SDS011;21525;41.240;16.500;2023-02-08T07:08:08;5.00;;;2.28;;
35418;SDS011;21525;41.240;16.500;2023-02-08T07:10:33;10.57;;;2.55;;
35418;SDS011;21525;41.240;16.500;2023-02-08T07:13:02;8.38;;;2.90;;
35418;SDS011;21525;41.240;16.500;2023-02-08T07:15:28;7.47;;;2.60;;
35418;SDS011;21525;41.240;16.500;2023-02-08T07:17:55;8.77;;;2.50;;
35418;SDS011;21525;41.240;16.500;2023-02-08T07:20:21;10.10;;;2.88;;
35418;SDS011;21525;41.240;16.500;2023-02-08T07:22:47;9.75;;;2.47;;
35418;SDS011;21525;41.240;16.500;2023-02-08T07:25:13;9.57;;;2.88;;
35418;SDS011;21525;41.240;16.500;2023-02-08T07:27:39;6.28;;;2.17;;
35418;SDS011;21525;41.240;16.500;2023-02-08T07:30:05;6.35;;;2.63;;
35418;SDS011;21525;41.240;16.500;2023-02-08T07:32:32;11.07;;;2.55;;
35418;SDS011;21525;41.240;16.500;2023-02-08T07:34:59;11.32;;;3.17;;
35418;SDS011;21525;41.240;16.500;2023-02-08T07:37:25;5.70;;;1.88;;
35418;SDS011;21525;41.240;16.500;2023-02-08T07:39:51;6.60;;;2.80;;
35418;SDS011;21525;41.240;16.500;2023-02-08T07:42:17;6.85;;;3.05;;
35418;SDS011;21525;41.240;16.500;2023-02-08T07:44:53;5.90;;;2.65;;
35418;SDS011;21525;41.240;16.500;2023-02-08T07:47:19;9.40;;;3.35;;
35418;SDS011;21525;41.240;16.500;2023-02-08T07:49:45;11.63;;;3.13;;
35418;SDS011;21525;41.240;16.500;2023-02-08T07:52:10;7.55;;;3.45;;
35418;SDS011;21525;41.240;16.500;2023-02-08T07:54:36;6.88;;;2.78;;
35418;SDS011;21525;41.240;16.500;2023-02-08T07:57:02;7.53;;;2.28;;
35418;SDS011;21525;41.240;16.500;2023-02-08T07:59:28;7.55;;;2.75;;
35418;SDS011;21525;41.240;16.500;2023-02-08T08:01:54;5.22;;;2.35;;
35418;SDS011;21525;41.240;16.500;2023-02-08T08:04:20;6.82;;;2.30;;
35418;SDS011;21525;41.240;16.500;2023-02-08T08:06:46;9.55;;;3.42;;
35418;SDS011;21525;41.240;16.500;2023-02-08T08:09:14;14.00;;;3.73;;
35418;SDS011;21525;41.240;16.500;2023-02-08T08:11:40;7.60;;;2.70;;
35418;SDS011;21525;41.240;16.500;2023-02-08T08:14:05;13.75;;;3.65;;
35418;SDS011;21525;41.240;16.500;2023-02-08T08:16:31;8.95;;;2.35;;
35418;SDS011;21525;41.240;16.500;2023-02-08T08:18:57;7.97;;;2.72;;
35418;SDS011;21525;41.240;16.500;2023-02-08T08:21:23;8.25;;;2.72;;
35418;SDS011;21525;41.240;16.500;2023-02-08T08:23:49;11.93;;;3.13;;
35418;SDS011;21525;41.240;16.500;2023-02-08T08:26:15;10.88;;;3.25;;
35418;SDS011;21525;41.240;16.500;2023-02-08T08:28:44;11.77;;;3.00;;
35418;SDS011;21525;41.240;16.500;2023-02-08T08:31:12;7.75;;;2.80;;
35418;SDS011;21525;41.240;16.500;2023-02-08T08:36:06;6.15;;;2.95;;
35418;SDS011;21525;41.240;16.500;2023-02-08T08:38:33;7.88;;;3.28;;
35418;SDS011;21525;41.240;16.500;2023-02-08T08:40:59;11.93;;;3.30;;
35418;SDS011;21525;41.240;16.500;2023-02-08T08:43:25;9.85;;;3.28;;
35418;SDS011;21525;41.240;16.500;2023-02-08T08:45:51;6.57;;;2.95;;
35418;SDS011;21525;41.240;16.500;2023-02-08T08:48:17;9.45;;;3.22;;
35418;SDS011;21525;41.240;16.500;2023-02-08T08:50:42;9.93;;;2.90;;
35418;SDS011;21525;41.240;16.500;2023-02-08T08:53:08;6.93;;;2.80;;
35418;SDS011;21525;41.240;16.500;2023-02-08T08:55:34;8.20;;;3.38;;
35418;SDS011;21525;41.240;16.500;2023-02-08T08:58:00;10.48;;;3.53;;
35418;SDS011;21525;41.240;16.500;2023-02-08T09:00:26;10.35;;;3.10;;
35418;SDS011;21525;41.240;16.500;2023-02-08T09:02:51;8.73;;;3.47;;
35418;SDS011;21525;41.240;16.500;2023-02-08T09:05:17;10.25;;;3.63;;
35418;SDS011;21525;41.240;16.500;2023-02-08T09:07:43;10.50;;;4.03;;
35418;SDS011;21525;41.240;16.500;2023-02-08T09:10:09;6.50;;;3.20;;
35418;SDS011;21525;41.240;16.500;2023-02-08T09:12:35;11.35;;;4.95;;
35418;SDS011;21525;41.240;16.500;2023-02-08T09:15:01;11.73;;;3.83;;
35418;SDS011;21525;41.240;16.500;2023-02-08T09:17:28;11.00;;;3.63;;
35418;SDS011;21525;41.240;16.500;2023-02-08T09:19:54;10.10;;;3.97;;
35418;SDS011;21525;41.240;16.500;2023-02-08T09:22:20;8.07;;;4.22;;
35418;SDS011;21525;41.240;16.500;2023-02-08T09:24:45;10.68;;;3.88;;
35418;SDS011;21525;41.240;16.500;2023-02-08T09:27:11;12.02;;;3.83;;
35418;SDS011;21525;41.240;16.500;2023-02-08T09:29:37;12.02;;;4.22;;
35418;SDS011;21525;41.240;16.500;2023-02-08T09:32:03;9.35;;;3.22;;
35418;SDS011;21525;41.240;16.500;2023-02-08T09:34:29;12.73;;;3.88;;
35418;SDS011;21525;41.240;16.500;2023-02-08T09:36:55;9.68;;;3.53;;
35418;SDS011;21525;41.240;16.500;2023-02-08T09:39:22;9.10;;;3.05;;
35418;SDS011;21525;41.240;16.500;2023-02-08T09:47:47;8.85;;;4.13;;
35418;SDS011;21525;41.240;16.500;2023-02-08T09:52:57;7.38;;;3.42;;
35418;SDS011;21525;41.240;16.500;2023-02-08T09:58:18;6.10;;;3.35;;
35418;SDS011;21525;41.240;16.500;2023-02-08T10:01:02;8.35;;;3.63;;
35418;SDS011;21525;41.240;16.500;2023-02-08T10:03:38;9.32;;;3.58;;
35418;SDS011;21525;41.240;16.500;2023-02-08T10:06:12;6.97;;;3.33;;
35418;SDS011;21525;41.240;16.500;2023-02-08T10:14:03;9.90;;;4.03;;
35418;SDS011;21525;41.240;16.500;2023-02-08T10:33:41;9.02;;;4.15;;
35418;SDS011;21525;41.240;16.500;2023-02-08T10:36:26;10.30;;;4.07;;
35418;SDS011;21525;41.240;16.500;2023-02-08T10:38:56;9.68;;;4.25;;
35418;SDS011;21525;41.240;16.500;2023-02-08T10:41:33;9.40;;;4.10;;
35418;SDS011;21525;41.240;16.500;2023-02-08T10:46:45;11.40;;;4.28;;
35418;SDS011;21525;41.240;16.500;2023-02-08T10:51:44;13.10;;;4.15;;
35418;SDS011;21525;41.240;16.500;2023-02-08T10:54:11;15.20;;;4.65;;
35418;SDS011;21525;41.240;16.500;2023-02-08T10:56:40;11.40;;;5.63;;
35418;SDS011;21525;41.240;16.500;2023-02-08T11:01:50;8.40;;;3.28;;
35418;SDS011;21525;41.240;16.500;2023-02-08T11:04:18;7.32;;;3.45;;
35418;SDS011;21525;41.240;16.500;2023-02-08T11:06:45;13.40;;;4.60;;
35418;SDS011;21525;41.240;16.500;2023-02-08T11:09:45;16.27;;;4.90;;
35418;SDS011;21525;41.240;16.500;2023-02-08T11:12:05;12.07;;;4.07;;
35418;SDS011;21525;41.240;16.500;2023-02-08T11:14:41;10.82;;;3.67;;
35418;SDS011;21525;41.240;16.500;2023-02-08T11:17:46;8.00;;;4.15;;
35418;SDS011;21525;41.240;16.500;2023-02-08T11:20:05;7.55;;;3.28;;
35418;SDS011;21525;41.240;16.500;2023-02-08T11:22:31;13.25;;;5.32;;
35418;SDS011;21525;41.240;16.500;2023-02-08T11:25:00;16.73;;;6.18;;
35418;SDS011;21525;41.240;16.500;2023-02-08T11:35:59;9.45;;;4.13;;
35418;SDS011;21525;41.240;16.500;2023-02-08T11:38:28;8.35;;;4.40;;
35418;SDS011;21525;41.240;16.500;2023-02-08T11:40:58;10.00;;;3.85;;
35418;SDS011;21525;41.240;16.500;2023-02-08T11:43:27;8.95;;;4.90;;
35418;SDS011;21525;41.240;16.500;2023-02-08T11:45:55;11.13;;;5.30;;
35418;SDS011;21525;41.240;16.500;2023-02-08T11:50:52;10.50;;;4.53;;
35418;SDS011;21525;41.240;16.500;2023-02-08T11:53:27;13.20;;;4.32;;
35418;SDS011;21525;41.240;16.500;2023-02-08T11:58:29;11.20;;;4.60;;
35418;SDS011;21525;41.240;16.500;2023-02-08T12:01:09;9.50;;;4.28;;
35418;SDS011;21525;41.240;16.500;2023-02-08T12:03:44;9.38;;;4.00;;
35418;SDS011;21525;41.240;16.500;2023-02-08T12:06:28;9.70;;;4.30;;
35418;SDS011;21525;41.240;16.500;2023-02-08T12:11:42;12.57;;;4.93;;
35418;SDS011;21525;41.240;16.500;2023-02-08T12:21:46;9.55;;;4.10;;
35418;SDS011;21525;41.240;16.500;2023-02-08T12:46:07;9.00;;;4.00;;
35418;SDS011;21525;41.240;16.500;2023-02-08T12:51:49;8.98;;;3.90;;
35418;SDS011;21525;41.240;16.500;2023-02-08T12:57:11;8.63;;;3.45;;
35418;SDS011;21525;41.240;16.500;2023-02-08T12:59:45;9.43;;;4.40;;
35418;SDS011;21525;41.240;16.500;2023-02-08T13:02:18;10.13;;;4.38;;
35418;SDS011;21525;41.240;16.500;2023-02-08T13:04:50;10.32;;;4.25;;
35418;SDS011;21525;41.240;16.500;2023-02-08T13:07:29;8.70;;;3.92;;
35418;SDS011;21525;41.240;16.500;2023-02-08T13:10:02;10.80;;;4.40;;
35418;SDS011;21525;41.240;16.500;2023-02-08T13:12:34;8.95;;;3.80;;
35418;SDS011;21525;41.240;16.500;2023-02-08T13:17:52;10.50;;;3.95;;
35418;SDS011;21525;41.240;16.500;2023-02-08T13:23:06;10.98;;;4.50;;
35418;SDS011;21525;41.240;16.500;2023-02-08T13:25:58;10.15;;;4.50;;
35418;SDS011;21525;41.240;16.500;2023-02-08T13:28:27;9.07;;;4.18;;
35418;SDS011;21525;41.240;16.500;2023-02-08T13:31:01;6.35;;;3.22;;
35418;SDS011;21525;41.240;16.500;2023-02-08T13:33:42;8.88;;;3.40;;
35418;SDS011;21525;41.240;16.500;2023-02-08T13:36:22;10.15;;;4.20;;
35418;SDS011;21525;41.240;16.500;2023-02-08T13:38:48;9.43;;;4.25;;
35418;SDS011;21525;41.240;16.500;2023-02-08T13:41:16;12.88;;;5.40;;
35418;SDS011;21525;41.240;16.500;2023-02-08T13:43:46;8.80;;;4.07;;
35418;SDS011;21525;41.240;16.500;2023-02-08T13:46:17;9.48;;;3.85;;
35418;SDS011;21525;41.240;16.500;2023-02-08T13:48:46;10.00;;;4.32;;
35418;SDS011;21525;41.240;16.500;2023-02-08T13:59:02;8.98;;;3.97;;
35418;SDS011;21525;41.240;16.500;2023-02-08T14:04:45;7.70;;;4.05;;
35418;SDS011;21525;41.240;16.500;2023-02-08T14:10:09;7.70;;;3.28;;
35418;SDS011;21525;41.240;16.500;2023-02-08T14:12:41;9.75;;;3.97;;
35418;SDS011;21525;41.240;16.500;2023-02-08T14:15:27;11.02;;;4.50;;
35418;SDS011;21525;41.240;16.500;2023-02-08T14:17:55;12.32;;;4.05;;
35418;SDS011;21525;41.240;16.500;2023-02-08T14:20:35;9.70;;;4.03;;
35418;SDS011;21525;41.240;16.500;2023-02-08T14:23:06;8.60;;;4.15;;
35418;SDS011;21525;41.240;16.500;2023-02-08T14:25:46;11.13;;;4.03;;
35418;SDS011;21525;41.240;16.500;2023-02-08T14:28:33;7.00;;;3.45;;
35418;SDS011;21525;41.240;16.500;2023-02-08T14:31:09;8.40;;;3.72;;
35418;SDS011;21525;41.240;16.500;2023-02-08T14:33:36;9.45;;;4.05;;
35418;SDS011;21525;41.240;16.500;2023-02-08T14:36:07;8.20;;;3.72;;
35418;SDS011;21525;41.240;16.500;2023-02-08T14:50:14;14.45;;;5.30;;
35418;SDS011;21525;41.240;16.500;2023-02-08T14:52:47;9.13;;;4.15;;
35418;SDS011;21525;41.240;16.500;2023-02-08T14:55:22;8.05;;;3.53;;
35418;SDS011;21525;41.240;16.500;2023-02-08T14:57:55;8.73;;;4.57;;
35418;SDS011;21525;41.240;16.500;2023-02-08T15:00:35;6.22;;;2.83;;
35418;SDS011;21525;41.240;16.500;2023-02-08T15:05:30;6.80;;;4.10;;
35418;SDS011;21525;41.240;16.500;2023-02-08T15:08:03;8.88;;;3.90;;
35418;SDS011;21525;41.240;16.500;2023-02-08T15:10:30;10.55;;;4.28;;
35418;SDS011;21525;41.240;16.500;2023-02-08T15:12:58;10.30;;;4.07;;
35418;SDS011;21525;41.240;16.500;2023-02-08T15:18:15;12.50;;;3.78;;
35418;SDS011;21525;41.240;16.500;2023-02-08T15:20:44;10.18;;;4.63;;
35418;SDS011;21525;41.240;16.500;2023-02-08T15:23:21;9.23;;;4.40;;
35418;SDS011;21525;41.240;16.500;2023-02-08T15:28:28;12.10;;;4.05;;
35418;SDS011;21525;41.240;16.500;2023-02-08T15:31:03;10.73;;;3.53;;
35418;SDS011;21525;41.240;16.500;2023-02-08T15:33:32;7.88;;;3.47;;
35418;SDS011;21525;41.240;16.500;2023-02-08T15:36:04;10.60;;;4.03;;
35418;SDS011;21525;41.240;16.500;2023-02-08T15:38:32;14.52;;;4.63;;
35418;SDS011;21525;41.240;16.500;2023-02-08T15:41:05;8.95;;;3.75;;
35418;SDS011;21525;41.240;16.500;2023-02-08T15:43:33;10.90;;;4.07;;
35418;SDS011;21525;41.240;16.500;2023-02-08T15:46:33;11.60;;;4.30;;
35418;SDS011;21525;41.240;16.500;2023-02-08T15:48:53;8.52;;;4.38;;
35418;SDS011;21525;41.240;16.500;2023-02-08T15:51:21;10.23;;;4.07;;
35418;SDS011;21525;41.240;16.500;2023-02-08T15:53:49;10.48;;;3.88;;
35418;SDS011;21525;41.240;16.500;2023-02-08T15:56:18;9.13;;;3.63;;
35418;SDS011;21525;41.240;16.500;2023-02-08T15:58:49;11.95;;;3.70;;
35418;SDS011;21525;41.240;16.500;2023-02-08T16:01:19;8.68;;;4.20;;
35418;SDS011;21525;41.240;16.500;2023-02-08T16:03:46;7.40;;;3.55;;
35418;SDS011;21525;41.240;16.500;2023-02-08T16:08:45;8.70;;;4.22;;
35418;SDS011;21525;41.240;16.500;2023-02-08T16:11:22;11.85;;;4.38;;
35418;SDS011;21525;41.240;16.500;2023-02-08T16:13:53;8.27;;;3.90;;
35418;SDS011;21525;41.240;16.500;2023-02-08T16:23:56;7.43;;;3.40;;
35418;SDS011;21525;41.240;16.500;2023-02-08T16:26:26;10.82;;;4.20;;
35418;SDS011;21525;41.240;16.500;2023-02-08T16:28:57;10.07;;;3.80;;
35418;SDS011;21525;41.240;16.500;2023-02-08T16:31:26;11.13;;;4.57;;
35418;SDS011;21525;41.240;16.500;2023-02-08T16:33:55;8.73;;;4.00;;
35418;SDS011;21525;41.240;16.500;2023-02-08T16:36:34;14.15;;;4.13;;
35418;SDS011;21525;41.240;16.500;2023-02-08T16:44:22;6.32;;;3.58;;
35418;SDS011;21525;41.240;16.500;2023-02-08T16:46:50;10.57;;;4.20;;
35418;SDS011;21525;41.240;16.500;2023-02-08T16:49:16;9.75;;;3.92;;
35418;SDS011;21525;41.240;16.500;2023-02-08T16:51:41;7.82;;;3.83;;
35418;SDS011;21525;41.240;16.500;2023-02-08T16:54:16;7.85;;;3.80;;
35418;SDS011;21525;41.240;16.500;2023-02-08T16:56:44;9.98;;;3.80;;
35418;SDS011;21525;41.240;16.500;2023-02-08T16:59:11;8.13;;;3.95;;
35418;SDS011;21525;41.240;16.500;2023-02-08T17:01:37;6.82;;;3.78;;
35418;SDS011;21525;41.240;16.500;2023-02-08T17:04:04;6.22;;;3.25;;
35418;SDS011;21525;41.240;16.500;2023-02-08T17:06:34;7.47;;;3.45;;
35418;SDS011;21525;41.240;16.500;2023-02-08T17:09:02;7.53;;;3.67;;
35418;SDS011;21525;41.240;16.500;2023-02-08T17:11:30;12.77;;;4.35;;
35418;SDS011;21525;41.240;16.500;2023-02-08T17:13:57;10.02;;;4.43;;
35418;SDS011;21525;41.240;16.500;2023-02-08T17:16:24;10.52;;;3.83;;
35418;SDS011;21525;41.240;16.500;2023-02-08T17:18:52;10.07;;;4.88;;
35418;SDS011;21525;41.240;16.500;2023-02-08T17:21:18;8.95;;;3.80;;
35418;SDS011;21525;41.240;16.500;2023-02-08T17:23:45;9.60;;;4.20;;
35418;SDS011;21525;41.240;16.500;2023-02-08T17:28:43;7.75;;;4.45;;
35418;SDS011;21525;41.240;16.500;2023-02-08T17:31:10;10.57;;;4.50;;
35418;SDS011;21525;41.240;16.500;2023-02-08T17:33:37;9.93;;;3.83;;
35418;SDS011;21525;41.240;16.500;2023-02-08T17:36:08;14.30;;;4.68;;
35418;SDS011;21525;41.240;16.500;2023-02-08T17:38:36;8.82;;;4.63;;
35418;SDS011;21525;41.240;16.500;2023-02-08T17:41:06;8.57;;;3.83;;
35418;SDS011;21525;41.240;16.500;2023-02-08T17:43:34;9.13;;;4.22;;
35418;SDS011;21525;41.240;16.500;2023-02-08T17:46:06;7.63;;;3.83;;
35418;SDS011;21525;41.240;16.500;2023-02-08T17:48:36;8.45;;;4.10;;
35418;SDS011;21525;41.240;16.500;2023-02-08T17:51:06;9.95;;;4.78;;
35418;SDS011;21525;41.240;16.500;2023-02-08T17:53:32;10.60;;;4.25;;
35418;SDS011;21525;41.240;16.500;2023-02-08T17:56:02;10.25;;;4.30;;
35418;SDS011;21525;41.240;16.500;2023-02-08T17:58:29;9.90;;;4.35;;